Time;durP1;ratioP1;P1;durP2;ratioP2;P2;SDS_P1;SDS_P2;PMS_P1;PMS_P2;Temp;Humidity;BMP_temperature;BMP_pressure;BME280_temperature;BME280_humidity;BME280_pressure;Samples;Min_cycle;Max_cycle;Signal;HPM_P1;HPM_P2
2023/09/01 00:02:06;;;;;;;7.30;4.80;;;18.60;99.90;;;;;;4989119;28;20260;-74
2023/09/01 00:04:32;;;;;;;10.40;4.70;;;18.60;99.90;;;;;;4979044;28;20182;-74
2023/09/01 00:06:59;;;;;;;6.63;4.90;;;18.60;99.90;;;;;;4989197;28;20912;-74
2023/09/01 00:09:25;;;;;;;7.20;4.07;;;18.60;99.90;;;;;;4983471;28;20432;-74
2023/09/01 00:11:50;;;;;;;4.23;3.40;;;18.50;99.90;;;;;;4982875;28;20947;-73
2023/09/01 00:14:16;;;;;;;5.17;4.27;;;18.50;99.90;;;;;;4985399;28;20245;-73
2023/09/01 00:16:42;;;;;;;7.73;5.00;;;18.50;99.90;;;;;;4981917;28;20217;-73
2023/09/01 00:19:07;;;;;;;6.13;4.70;;;18.50;99.90;;;;;;4982478;28;20205;-73
2023/09/01 00:21:33;;;;;;;6.47;4.33;;;18.40;99.90;;;;;;4981482;28;20181;-73
2023/09/01 00:23:59;;;;;;;8.27;4.53;;;18.40;99.90;;;;;;4981805;28;20232;-73
2023/09/01 00:26:24;;;;;;;7.10;4.53;;;18.40;99.90;;;;;;4984478;28;20224;-73
2023/09/01 00:28:50;;;;;;;6.30;5.30;;;18.30;99.90;;;;;;4978183;28;20210;-73
2023/09/01 00:31:16;;;;;;;7.83;5.20;;;18.30;99.90;;;;;;4981676;28;20264;-73
2023/09/01 00:33:41;;;;;;;8.97;5.90;;;18.30;99.90;;;;;;4981115;28;20195;-74
2023/09/01 00:36:07;;;;;;;6.57;4.47;;;18.30;99.90;;;;;;4986090;28;20204;-73
2023/09/01 00:38:33;;;;;;;6.70;4.40;;;18.30;99.90;;;;;;4977693;28;20206;-73
2023/09/01 00:40:58;;;;;;;8.23;5.00;;;18.20;99.90;;;;;;4979801;28;20206;-73
2023/09/01 00:43:25;;;;;;;7.83;4.50;;;18.20;99.90;;;;;;4983810;28;20439;-73
2023/09/01 00:45:51;;;;;;;7.33;4.90;;;18.10;99.90;;;;;;4984674;28;21564;-74
2023/09/01 00:48:17;;;;;;;5.80;4.60;;;18.10;99.90;;;;;;4977396;28;20476;-73
2023/09/01 00:50:47;;;;;;;6.80;5.20;;;18.00;99.90;;;;;;4986653;28;20437;-73
2023/09/01 00:53:13;;;;;;;6.30;5.37;;;18.10;99.90;;;;;;4980745;28;20429;-73
2023/09/01 00:55:39;;;;;;;11.73;5.20;;;18.10;99.90;;;;;;4984022;28;20417;-73
2023/09/01 00:58:05;;;;;;;7.87;4.83;;;18.10;99.90;;;;;;4981019;28;20210;-73
2023/09/01 01:00:32;;;;;;;6.77;4.53;;;18.10;99.90;;;;;;4981697;28;20575;-73
2023/09/01 01:03:00;;;;;;;9.10;4.43;;;18.10;99.90;;;;;;4978200;28;20430;-73
2023/09/01 01:06:09;;;;;;;6.20;4.70;;;18.00;99.90;;;;;;4980880;28;20821;-73
2023/09/01 01:09:03;;;;;;;6.80;4.37;;;18.00;99.90;;;;;;4972019;28;20483;-73
2023/09/01 01:11:56;;;;;;;8.00;3.80;;;17.90;99.90;;;;;;4978156;28;20815;-73
2023/09/01 01:14:27;;;;;;;10.73;4.63;;;17.90;99.90;;;;;;4978453;28;20464;-73
2023/09/01 01:16:54;;;;;;;7.70;4.17;;;17.80;99.90;;;;;;4980080;28;20500;-73
2023/09/01 01:19:33;;;;;;;8.10;4.60;;;17.80;99.90;;;;;;4980939;28;20490;-73
2023/09/01 01:22:00;;;;;;;11.87;4.60;;;17.90;99.90;;;;;;4980878;28;20495;-73
2023/09/01 01:24:26;;;;;;;8.70;4.63;;;17.90;99.90;;;;;;4983629;28;20986;-73
2023/09/01 01:26:53;;;;;;;7.13;5.07;;;17.90;99.90;;;;;;4983051;28;20456;-74
2023/09/01 01:29:18;;;;;;;5.80;4.10;;;17.90;99.90;;;;;;4980915;28;20461;-73
2023/09/01 01:31:44;;;;;;;8.03;4.40;;;17.90;99.90;;;;;;4986765;28;20421;-73
2023/09/01 01:34:24;;;;;;;5.57;4.23;;;17.90;99.90;;;;;;4982048;28;20186;-73
2023/09/01 01:37:10;;;;;;;9.77;5.23;;;17.90;99.90;;;;;;4982662;28;20184;-73
2023/09/01 01:39:37;;;;;;;6.60;4.00;;;18.00;99.90;;;;;;4980209;28;20899;-73
2023/09/01 01:42:07;;;;;;;7.47;3.60;;;18.10;99.90;;;;;;4982346;28;20511;-73
2023/09/01 01:44:37;;;;;;;8.80;4.60;;;18.00;99.90;;;;;;4981026;28;20500;-73
2023/09/01 01:47:04;;;;;;;9.33;4.63;;;18.00;99.90;;;;;;4984772;28;20716;-74
2023/09/01 01:49:30;;;;;;;5.90;4.17;;;17.90;99.90;;;;;;4978284;28;20463;-73
2023/09/01 01:51:57;;;;;;;6.60;4.57;;;17.90;99.90;;;;;;4982359;28;20418;-73
2023/09/01 01:54:23;;;;;;;6.03;4.70;;;17.90;99.90;;;;;;4979659;28;20269;-73
2023/09/01 01:56:49;;;;;;;5.10;4.13;;;17.90;99.90;;;;;;4981914;28;20539;-73
2023/09/01 01:59:16;;;;;;;6.50;3.70;;;18.00;99.90;;;;;;4983879;28;20197;-73
2023/09/01 02:01:42;;;;;;;5.00;3.57;;;18.00;99.90;;;;;;4979470;28;21008;-73
2023/09/01 02:04:07;;;;;;;5.13;3.20;;;18.00;99.90;;;;;;4976407;28;20426;-73
2023/09/01 02:06:33;;;;;;;6.57;3.80;;;18.00;99.90;;;;;;4981512;28;20184;-73
2023/09/01 02:08:58;;;;;;;5.70;4.13;;;18.00;99.90;;;;;;4979954;28;20197;-73
2023/09/01 02:11:24;;;;;;;5.80;3.80;;;17.90;99.90;;;;;;4984531;28;20214;-74
2023/09/01 02:13:49;;;;;;;7.27;3.80;;;17.90;99.90;;;;;;4981021;28;20603;-73
2023/09/01 02:16:15;;;;;;;6.53;4.60;;;17.90;99.90;;;;;;4981953;28;20574;-73
2023/09/01 02:18:40;;;;;;;5.00;3.80;;;17.90;99.90;;;;;;4981964;28;20620;-73
2023/09/01 02:21:06;;;;;;;4.20;3.57;;;18.00;99.90;;;;;;4978416;28;20225;-73
2023/09/01 02:23:32;;;;;;;7.03;4.00;;;18.00;99.90;;;;;;4981419;28;20255;-73
2023/09/01 02:25:57;;;;;;;8.87;3.60;;;18.00;99.90;;;;;;4977592;28;20186;-73
2023/09/01 02:28:23;;;;;;;7.07;4.50;;;17.90;99.90;;;;;;4977363;28;20991;-73
2023/09/01 02:30:49;;;;;;;11.93;5.00;;;18.00;99.90;;;;;;4979882;28;20205;-73
2023/09/01 02:33:14;;;;;;;9.90;3.67;;;18.00;99.90;;;;;;4980539;28;20182;-73
2023/09/01 02:35:44;;;;;;;7.63;3.80;;;18.00;99.90;;;;;;4977843;28;20216;-73
2023/09/01 02:38:13;;;;;;;5.70;4.00;;;18.00;99.90;;;;;;4980694;28;20246;-73
2023/09/01 02:40:39;;;;;;;5.40;3.73;;;18.00;99.90;;;;;;4985494;28;20496;-73
2023/09/01 02:43:05;;;;;;;6.37;3.67;;;18.10;99.90;;;;;;4983479;28;20780;-73
2023/09/01 02:45:30;;;;;;;5.33;3.60;;;18.10;99.90;;;;;;4983440;28;20608;-74
2023/09/01 02:47:57;;;;;;;4.27;3.40;;;18.10;99.90;;;;;;4980652;28;20240;-73
2023/09/01 02:50:22;;;;;;;8.43;4.20;;;18.10;99.90;;;;;;4981749;28;20654;-73
2023/09/01 02:52:48;;;;;;;6.60;4.13;;;18.00;99.90;;;;;;4977366;28;20454;-73
2023/09/01 02:55:17;;;;;;;6.73;4.10;;;18.10;99.90;;;;;;4980588;28;20181;-73
2023/09/01 02:57:43;;;;;;;4.90;3.47;;;18.10;99.90;;;;;;4978708;28;20202;-73
2023/09/01 03:00:18;;;;;;;6.20;3.70;;;18.10;99.90;;;;;;4981908;28;20440;-73
2023/09/01 03:02:44;;;;;;;4.90;3.73;;;18.10;99.90;;;;;;4975933;28;20433;-73
2023/09/01 03:05:10;;;;;;;5.03;3.43;;;18.20;99.90;;;;;;4980055;28;20421;-73
2023/09/01 03:07:37;;;;;;;5.70;3.90;;;18.10;99.90;;;;;;4980362;28;20458;-75
2023/09/01 03:10:06;;;;;;;5.77;3.77;;;18.10;99.90;;;;;;4982902;28;20321;-75
2023/09/01 03:12:33;;;;;;;7.50;3.90;;;18.10;99.90;;;;;;4981374;28;20907;-74
2023/09/01 03:14:58;;;;;;;6.53;3.50;;;18.20;99.90;;;;;;4982623;28;20837;-74
2023/09/01 03:17:24;;;;;;;7.07;3.87;;;18.10;99.90;;;;;;4984955;28;20515;-74
2023/09/01 03:19:50;;;;;;;6.27;3.80;;;18.20;99.90;;;;;;4985792;28;20209;-73
2023/09/01 03:22:15;;;;;;;5.07;3.60;;;18.20;99.90;;;;;;4982822;28;20196;-73
2023/09/01 03:24:41;;;;;;;6.63;3.30;;;18.30;99.90;;;;;;4987478;28;20269;-73
2023/09/01 03:27:06;;;;;;;9.60;5.63;;;18.30;99.90;;;;;;4987811;28;20209;-73
2023/09/01 03:29:32;;;;;;;4.13;3.50;;;18.30;99.90;;;;;;4985941;28;20194;-73
2023/09/01 03:31:57;;;;;;;4.53;3.63;;;18.30;99.90;;;;;;4990339;28;20181;-73
2023/09/01 03:34:23;;;;;;;4.60;3.30;;;18.30;99.90;;;;;;4988447;28;20181;-73
2023/09/01 03:36:49;;;;;;;5.87;3.77;;;18.30;99.90;;;;;;4988060;28;20210;-73
2023/09/01 03:39:15;;;;;;;4.20;3.40;;;18.40;99.90;;;;;;4983921;28;20492;-73
2023/09/01 03:41:41;;;;;;;5.57;3.10;;;18.40;99.90;;;;;;4979414;28;20211;-73
2023/09/01 03:44:07;;;;;;;4.73;3.27;;;18.40;99.90;;;;;;4984422;28;20420;-73
2023/09/01 03:46:32;;;;;;;4.70;3.30;;;18.40;99.90;;;;;;4984103;28;20428;-73
2023/09/01 03:48:58;;;;;;;5.63;3.73;;;18.50;99.90;;;;;;4977099;28;20256;-73
2023/09/01 03:51:24;;;;;;;4.97;2.83;;;18.50;99.90;;;;;;4981937;28;20189;-73
2023/09/01 03:53:49;;;;;;;4.27;3.30;;;18.50;99.90;;;;;;4982300;28;20186;-73
2023/09/01 03:56:17;;;;;;;7.03;3.70;;;18.50;99.90;;;;;;4982058;28;20439;-73
2023/09/01 03:58:43;;;;;;;4.70;2.80;;;18.50;99.90;;;;;;4986255;28;20212;-73
2023/09/01 04:01:13;;;;;;;6.00;4.70;;;18.50;99.90;;;;;;4991063;28;20455;-73
2023/09/01 04:03:43;;;;;;;7.27;2.83;;;18.60;99.90;;;;;;4979515;28;20907;-73
2023/09/01 04:06:08;;;;;;;7.10;3.40;;;18.60;99.90;;;;;;4982027;28;20430;-73
2023/09/01 04:08:35;;;;;;;4.13;3.07;;;18.60;99.90;;;;;;4983024;28;20495;-73
2023/09/01 04:11:02;;;;;;;5.00;3.00;;;18.50;99.90;;;;;;4989176;28;20609;-73
2023/09/01 04:13:28;;;;;;;3.77;2.50;;;18.50;99.90;;;;;;4985707;28;20468;-73
2023/09/01 04:15:55;;;;;;;3.50;2.70;;;18.50;99.90;;;;;;4986440;28;20437;-73
2023/09/01 04:18:21;;;;;;;4.33;3.43;;;18.50;99.90;;;;;;4985157;28;20204;-73
2023/09/01 04:20:51;;;;;;;3.67;2.43;;;18.50;99.90;;;;;;4985361;28;20413;-73
2023/09/01 04:23:17;;;;;;;6.73;3.30;;;18.60;99.90;;;;;;4984115;28;20418;-73
2023/09/01 04:25:47;;;;;;;4.37;3.00;;;18.60;99.90;;;;;;4983223;28;20783;-73
2023/09/01 04:28:16;;;;;;;4.30;2.43;;;18.70;99.90;;;;;;4983991;28;20910;-73
2023/09/01 04:30:45;;;;;;;4.60;3.47;;;18.80;99.90;;;;;;4977324;28;20438;-73
2023/09/01 04:33:12;;;;;;;4.97;2.73;;;18.80;99.90;;;;;;4985393;28;20660;-73
2023/09/01 04:35:38;;;;;;;5.10;2.67;;;18.70;99.90;;;;;;4986586;28;20532;-73
2023/09/01 04:38:03;;;;;;;5.20;2.70;;;18.70;99.90;;;;;;4981422;28;20460;-73
2023/09/01 04:40:30;;;;;;;5.03;2.70;;;18.70;99.90;;;;;;4982856;28;20493;-73
2023/09/01 04:42:55;;;;;;;9.17;3.00;;;18.80;99.90;;;;;;4985236;28;20600;-73
2023/09/01 04:45:22;;;;;;;6.60;2.70;;;18.80;99.90;;;;;;4982250;28;20425;-73
2023/09/01 04:47:48;;;;;;;7.07;2.87;;;18.80;99.90;;;;;;4981161;28;20599;-73
2023/09/01 04:50:14;;;;;;;3.37;2.67;;;18.90;99.90;;;;;;4983132;28;20507;-73
2023/09/01 04:52:40;;;;;;;4.43;3.80;;;18.90;99.90;;;;;;4982391;28;20421;-73
2023/09/01 04:55:08;;;;;;;4.20;2.37;;;18.90;99.90;;;;;;4981325;28;20186;-73
2023/09/01 04:57:33;;;;;;;8.33;3.00;;;18.90;99.90;;;;;;4976521;28;20230;-74
2023/09/01 04:59:59;;;;;;;3.17;2.10;;;18.90;99.90;;;;;;4981767;28;20440;-73
2023/09/01 05:02:24;;;;;;;2.60;2.00;;;18.90;99.90;;;;;;4980022;28;20190;-74
2023/09/01 05:04:51;;;;;;;3.00;2.03;;;18.90;99.90;;;;;;4983330;28;20185;-73
2023/09/01 05:07:16;;;;;;;3.33;2.10;;;18.90;99.90;;;;;;4980802;28;20202;-73
2023/09/01 05:09:42;;;;;;;2.80;2.33;;;18.80;99.90;;;;;;4984277;28;20413;-74
2023/09/01 05:12:08;;;;;;;3.90;2.10;;;18.80;99.90;;;;;;4986182;28;20217;-73
2023/09/01 05:14:34;;;;;;;4.60;2.23;;;18.80;99.90;;;;;;4991701;28;20178;-73
2023/09/01 05:17:00;;;;;;;3.10;1.90;;;18.80;99.90;;;;;;4980779;28;20808;-73
2023/09/01 05:19:25;;;;;;;6.73;2.10;;;18.60;99.90;;;;;;4984574;28;20189;-73
2023/09/01 05:21:51;;;;;;;3.93;2.10;;;18.60;99.90;;;;;;4981730;28;20547;-73
2023/09/01 05:24:16;;;;;;;4.00;1.90;;;18.60;99.90;;;;;;4980254;28;20589;-73
2023/09/01 05:26:42;;;;;;;6.73;2.23;;;18.60;99.90;;;;;;4982629;28;20515;-73
2023/09/01 05:29:08;;;;;;;4.83;2.10;;;18.60;99.90;;;;;;4979619;28;20206;-73
2023/09/01 05:31:33;;;;;;;5.20;3.00;;;18.50;99.90;;;;;;4982568;28;20688;-73
2023/09/01 05:33:59;;;;;;;3.00;2.53;;;18.60;99.90;;;;;;4985745;28;20678;-74
2023/09/01 05:36:26;;;;;;;3.50;2.10;;;18.50;99.90;;;;;;4983694;28;20178;-73
2023/09/01 05:38:51;;;;;;;2.97;1.93;;;18.50;99.90;;;;;;4976409;28;20797;-74
2023/09/01 05:41:17;;;;;;;3.33;2.40;;;18.50;99.90;;;;;;4981923;28;20421;-74
2023/09/01 05:43:42;;;;;;;3.47;2.70;;;18.50;99.90;;;;;;4979105;28;20626;-73
2023/09/01 05:46:08;;;;;;;4.30;2.63;;;18.50;99.90;;;;;;4985026;28;20261;-74
2023/09/01 05:48:36;;;;;;;4.73;2.83;;;18.60;99.90;;;;;;4979272;28;20213;-73
2023/09/01 05:51:01;;;;;;;3.37;2.60;;;18.60;99.90;;;;;;4981846;28;20178;-73
2023/09/01 05:53:27;;;;;;;3.30;2.90;;;18.60;99.90;;;;;;4975736;28;20435;-73
2023/09/01 05:55:53;;;;;;;3.17;2.47;;;18.60;99.90;;;;;;4980087;28;20194;-73
2023/09/01 05:58:19;;;;;;;3.13;2.33;;;18.60;99.90;;;;;;4981157;28;20911;-74
2023/09/01 06:00:44;;;;;;;2.80;1.90;;;18.70;99.90;;;;;;4976198;28;20182;-73
2023/09/01 06:03:10;;;;;;;5.07;2.50;;;18.60;99.90;;;;;;4979059;28;20656;-74
2023/09/01 06:05:36;;;;;;;3.63;2.07;;;18.60;99.90;;;;;;4979511;28;20659;-74
2023/09/01 06:08:02;;;;;;;3.77;2.60;;;18.70;99.90;;;;;;4977604;28;20308;-74
2023/09/01 06:10:31;;;;;;;3.70;2.27;;;18.70;99.90;;;;;;4979505;28;20423;-74
2023/09/01 06:12:56;;;;;;;3.30;2.43;;;18.70;99.90;;;;;;4979892;28;20423;-74
2023/09/01 06:15:22;;;;;;;3.67;2.20;;;18.70;99.90;;;;;;4975536;28;20433;-73
2023/09/01 06:17:47;;;;;;;4.37;2.47;;;18.70;99.90;;;;;;4977297;28;20483;-74
2023/09/01 06:20:13;;;;;;;2.70;2.00;;;18.70;99.90;;;;;;4977513;28;20186;-73
2023/09/01 06:22:39;;;;;;;4.70;2.13;;;18.80;99.90;;;;;;4970272;28;20186;-73
2023/09/01 06:25:05;;;;;;;4.40;2.20;;;18.80;99.90;;;;;;4980129;28;20487;-73
2023/09/01 06:27:32;;;;;;;2.50;2.10;;;18.80;99.90;;;;;;4973030;28;20706;-74
2023/09/01 06:29:58;;;;;;;3.53;2.00;;;18.90;99.90;;;;;;4979291;28;20500;-74
2023/09/01 06:32:24;;;;;;;4.53;3.00;;;18.80;99.90;;;;;;4975507;28;20516;-73
2023/09/01 06:34:50;;;;;;;2.53;2.00;;;18.90;99.90;;;;;;4977890;28;20193;-73
2023/09/01 06:37:15;;;;;;;3.17;2.10;;;18.90;99.90;;;;;;4977991;28;20185;-74
2023/09/01 06:39:41;;;;;;;3.83;2.13;;;18.90;99.90;;;;;;4977304;28;20197;-73
2023/09/01 06:42:07;;;;;;;5.50;2.30;;;18.90;99.90;;;;;;4980299;28;20562;-74
2023/09/01 06:44:33;;;;;;;2.20;1.63;;;19.00;99.90;;;;;;4979394;28;20189;-74
2023/09/01 06:46:59;;;;;;;4.73;2.03;;;19.00;99.90;;;;;;4981817;28;20456;-73
2023/09/01 06:49:24;;;;;;;2.77;2.20;;;18.90;99.90;;;;;;4982004;28;20699;-74
2023/09/01 06:51:50;;;;;;;4.50;2.10;;;18.90;99.90;;;;;;4979689;28;20178;-73
2023/09/01 06:54:15;;;;;;;3.70;1.97;;;18.90;99.90;;;;;;4980391;28;20189;-74
2023/09/01 06:56:41;;;;;;;3.80;2.27;;;18.90;99.90;;;;;;4985316;28;20647;-74
2023/09/01 06:59:07;;;;;;;3.43;2.40;;;18.90;99.90;;;;;;4977894;28;20205;-73
2023/09/01 07:01:32;;;;;;;3.00;1.80;;;19.00;99.90;;;;;;4981353;28;20695;-73
2023/09/01 07:03:58;;;;;;;2.73;1.87;;;19.10;99.90;;;;;;4979494;28;20182;-73
2023/09/01 07:06:23;;;;;;;3.20;1.90;;;19.10;99.90;;;;;;4983248;28;20182;-73
2023/09/01 07:08:49;;;;;;;4.10;2.03;;;19.10;99.90;;;;;;4977712;28;20244;-73
2023/09/01 07:11:19;;;;;;;2.67;1.70;;;19.10;99.90;;;;;;4981721;28;20834;-73
2023/09/01 07:13:46;;;;;;;3.00;2.17;;;19.10;99.90;;;;;;4980173;28;20367;-75
2023/09/01 07:16:12;;;;;;;3.00;2.00;;;19.20;99.90;;;;;;4981816;28;20428;-74
2023/09/01 07:18:38;;;;;;;3.37;1.73;;;19.20;99.90;;;;;;4980691;28;20593;-74
2023/09/01 07:21:04;;;;;;;2.93;1.90;;;19.30;99.90;;;;;;4977791;28;20464;-73
2023/09/01 07:23:30;;;;;;;3.07;1.77;;;19.30;99.90;;;;;;4974737;28;20743;-73
2023/09/01 07:25:56;;;;;;;2.50;2.00;;;19.40;99.90;;;;;;4976232;28;20208;-73
2023/09/01 07:28:22;;;;;;;3.07;2.07;;;19.40;99.90;;;;;;4974992;28;20211;-74
2023/09/01 07:30:48;;;;;;;5.63;2.77;;;19.40;99.90;;;;;;4976801;28;20182;-74
2023/09/01 07:33:14;;;;;;;2.83;1.90;;;19.30;99.90;;;;;;4979287;28;20433;-73
2023/09/01 07:35:50;;;;;;;5.40;1.90;;;19.40;99.90;;;;;;4978090;28;20178;-73
2023/09/01 07:38:17;;;;;;;3.47;2.20;;;19.50;99.90;;;;;;4977614;28;21372;-73
2023/09/01 07:40:43;;;;;;;3.07;2.20;;;19.60;99.90;;;;;;4981217;28;20428;-73
2023/09/01 07:43:09;;;;;;;2.80;2.10;;;19.70;99.90;;;;;;4982966;28;20927;-73
2023/09/01 07:45:35;;;;;;;2.67;1.90;;;19.70;99.90;;;;;;4982050;28;20551;-73
2023/09/01 07:48:00;;;;;;;7.50;2.10;;;19.70;99.90;;;;;;4978670;28;20693;-73
2023/09/01 07:50:30;;;;;;;3.60;2.00;;;19.70;99.90;;;;;;4980207;28;20189;-73
2023/09/01 07:52:59;;;;;;;3.10;2.10;;;19.70;99.90;;;;;;4981629;28;20193;-73
2023/09/01 07:55:25;;;;;;;2.60;1.90;;;19.70;99.90;;;;;;4982604;28;20804;-73
2023/09/01 07:57:51;;;;;;;3.87;2.20;;;19.80;99.90;;;;;;4981681;28;20680;-73
2023/09/01 08:00:17;;;;;;;2.90;1.90;;;19.80;99.90;;;;;;4976784;28;20449;-73
2023/09/01 08:02:43;;;;;;;3.17;2.17;;;19.80;99.90;;;;;;4980538;28;20563;-73
2023/09/01 08:05:09;;;;;;;5.50;2.20;;;19.90;99.90;;;;;;4984918;28;20459;-73
2023/09/01 08:07:37;;;;;;;5.50;2.20;;;19.90;99.90;;;;;;4984124;28;20473;-73
2023/09/01 08:10:04;;;;;;;3.87;2.20;;;20.00;99.90;;;;;;4990537;28;20416;-73
2023/09/01 08:12:29;;;;;;;2.90;1.70;;;20.10;99.90;;;;;;4982811;28;20919;-73
2023/09/01 08:14:56;;;;;;;3.03;2.10;;;20.20;99.90;;;;;;4981161;28;20429;-73
2023/09/01 08:17:21;;;;;;;3.70;2.07;;;20.20;99.90;;;;;;5002870;28;20187;-73
2023/09/01 08:19:50;;;;;;;2.70;2.10;;;20.10;99.90;;;;;;5006140;28;20425;-73
2023/09/01 08:22:17;;;;;;;3.47;2.10;;;20.20;99.90;;;;;;4999796;28;20233;-73
2023/09/01 08:24:43;;;;;;;3.23;2.27;;;20.20;99.90;;;;;;4988719;28;20578;-73
2023/09/01 08:27:09;;;;;;;3.20;2.00;;;20.30;99.90;;;;;;4981202;28;20791;-73
2023/09/01 08:29:34;;;;;;;2.60;1.90;;;20.30;99.90;;;;;;4982033;28;20910;-73
2023/09/01 08:32:00;;;;;;;5.97;2.27;;;20.40;99.90;;;;;;4981951;28;20236;-73
2023/09/01 08:34:27;;;;;;;3.43;1.90;;;20.40;99.90;;;;;;4976708;28;20185;-73
2023/09/01 08:36:52;;;;;;;2.80;1.83;;;20.40;99.90;;;;;;4977471;28;20467;-74
2023/09/01 08:39:18;;;;;;;5.60;2.33;;;20.50;99.90;;;;;;4982408;28;21074;-74
2023/09/01 08:41:45;;;;;;;3.67;2.90;;;20.70;99.90;;;;;;4985433;28;20237;-73
2023/09/01 08:44:11;;;;;;;4.93;2.40;;;20.80;99.90;;;;;;4980942;28;20228;-73
2023/09/01 08:46:37;;;;;;;2.33;1.73;;;20.80;99.90;;;;;;4981026;28;20422;-73
2023/09/01 08:49:04;;;;;;;5.53;2.03;;;20.90;99.90;;;;;;4981893;28;20527;-73
2023/09/01 08:51:30;;;;;;;3.67;1.83;;;20.90;99.90;;;;;;4976664;28;20425;-73
2023/09/01 08:53:56;;;;;;;2.97;2.00;;;20.90;99.90;;;;;;4981861;28;20433;-73
2023/09/01 08:56:22;;;;;;;3.40;1.90;;;21.00;99.90;;;;;;4976424;28;20436;-73
2023/09/01 08:58:48;;;;;;;2.43;1.73;;;21.10;99.90;;;;;;4982003;28;20960;-73
2023/09/01 09:01:15;;;;;;;3.67;1.80;;;21.10;99.90;;;;;;4981981;28;20734;-73
2023/09/01 09:03:40;;;;;;;3.07;2.20;;;21.10;99.90;;;;;;4987366;28;20644;-73
2023/09/01 09:06:06;;;;;;;2.53;1.60;;;21.10;99.90;;;;;;4980440;28;20448;-73
2023/09/01 09:08:34;;;;;;;3.87;2.00;;;21.10;99.90;;;;;;4981753;28;20750;-73
2023/09/01 09:10:59;;;;;;;2.77;1.83;;;21.10;99.90;;;;;;4979194;28;20197;-73
2023/09/01 09:13:30;;;;;;;2.40;1.87;;;21.10;99.90;;;;;;4982212;28;20417;-73
2023/09/01 09:16:05;;;;;;;4.93;1.90;;;21.10;99.90;;;;;;4980904;28;20256;-73
2023/09/01 09:18:31;;;;;;;2.97;1.90;;;21.10;99.90;;;;;;4982845;28;20995;-73
2023/09/01 09:20:56;;;;;;;2.80;1.60;;;21.10;99.90;;;;;;4986580;28;20440;-73
2023/09/01 09:23:43;;;;;;;3.90;1.87;;;21.10;99.90;;;;;;4981376;28;20438;-73
2023/09/01 09:26:10;;;;;;;2.57;1.80;;;21.10;99.90;;;;;;4982141;28;20276;-73
2023/09/01 09:28:36;;;;;;;2.83;2.07;;;21.10;99.90;;;;;;4982726;28;20469;-73
2023/09/01 09:31:02;;;;;;;2.73;1.80;;;21.10;99.90;;;;;;4983163;28;20950;-73
2023/09/01 09:33:30;;;;;;;2.93;1.90;;;21.10;99.90;;;;;;4980874;28;20201;-73
2023/09/01 09:35:56;;;;;;;2.90;2.00;;;21.20;99.90;;;;;;4980784;28;20867;-74
2023/09/01 09:38:21;;;;;;;4.43;1.83;;;21.20;99.90;;;;;;4980990;28;20533;-73
2023/09/01 09:41:00;;;;;;;3.27;1.87;;;21.30;99.90;;;;;;4990829;28;20284;-73
2023/09/01 09:43:27;;;;;;;3.30;1.90;;;21.30;99.90;;;;;;4974595;28;20219;-73
2023/09/01 09:45:55;;;;;;;2.30;1.70;;;21.30;99.90;;;;;;4984274;28;20425;-73
2023/09/01 09:48:21;;;;;;;4.23;2.57;;;21.40;99.90;;;;;;4977728;28;20475;-73
2023/09/01 09:50:54;;;;;;;6.53;2.13;;;21.40;99.90;;;;;;4982178;28;20413;-74
2023/09/01 09:53:24;;;;;;;3.77;2.00;;;21.40;99.90;;;;;;4978524;28;20694;-73
2023/09/01 09:55:53;;;;;;;2.47;1.77;;;21.50;99.90;;;;;;4977869;28;20976;-75
2023/09/01 09:58:23;;;;;;;3.20;2.20;;;21.50;99.90;;;;;;4982109;28;20451;-74
2023/09/01 10:01:19;;;;;;;2.57;1.70;;;21.60;99.90;;;;;;4976566;28;20428;-74
2023/09/01 10:03:47;;;;;;;3.23;2.03;;;21.70;99.90;;;;;;4975168;28;20527;-74
2023/09/01 10:06:16;;;;;;;3.60;2.10;;;21.80;99.90;;;;;;4981562;28;20416;-75
2023/09/01 10:08:42;;;;;;;3.10;2.00;;;21.80;99.90;;;;;;4986412;28;20480;-74
2023/09/01 10:11:09;;;;;;;3.20;2.30;;;21.80;99.90;;;;;;4982498;28;20475;-74
2023/09/01 10:13:36;;;;;;;3.43;2.20;;;21.80;99.90;;;;;;4982511;28;20437;-74
2023/09/01 10:16:03;;;;;;;3.80;2.30;;;21.90;99.90;;;;;;4979538;28;20794;-74
2023/09/01 10:18:29;;;;;;;3.20;2.10;;;21.90;99.90;;;;;;4981804;28;20449;-74
2023/09/01 10:20:55;;;;;;;2.37;1.90;;;22.00;99.90;;;;;;4982561;28;20465;-74
2023/09/01 10:23:20;;;;;;;3.10;2.17;;;22.10;99.90;;;;;;4982541;28;20853;-74
2023/09/01 10:26:11;;;;;;;2.90;2.00;;;22.20;99.90;;;;;;4978202;28;20187;-75
2023/09/01 10:28:53;;;;;;;4.00;2.10;;;22.30;99.90;;;;;;4981649;28;21148;-73
2023/09/01 10:31:23;;;;;;;3.30;2.30;;;22.50;99.90;;;;;;4982416;28;20774;-74
2023/09/01 10:34:02;;;;;;;2.93;2.20;;;22.60;99.90;;;;;;4983279;28;20428;-74
2023/09/01 10:36:27;;;;;;;3.90;2.00;;;22.60;99.90;;;;;;4978932;28;21108;-74
2023/09/01 10:38:53;;;;;;;4.70;2.60;;;22.60;99.90;;;;;;4980186;28;20440;-74
2023/09/01 10:41:52;;;;;;;4.70;2.30;;;22.70;99.90;;;;;;4981864;28;20197;-73
2023/09/01 10:44:18;;;;;;;3.90;2.43;;;22.60;99.90;;;;;;4983751;28;20319;-73
2023/09/01 10:46:43;;;;;;;2.77;2.13;;;22.60;99.90;;;;;;4981571;28;20428;-73
2023/09/01 10:49:10;;;;;;;4.07;2.30;;;22.50;99.90;;;;;;4980422;28;20279;-74
2023/09/01 10:51:37;;;;;;;3.43;2.17;;;22.50;99.90;;;;;;4980193;28;20550;-74
2023/09/01 10:54:22;;;;;;;5.37;2.73;;;22.50;99.90;;;;;;4980725;28;20444;-74
2023/09/01 10:57:04;;;;;;;3.43;2.30;;;22.60;99.90;;;;;;4984945;28;20414;-74
2023/09/01 10:59:37;;;;;;;4.10;1.87;;;22.70;99.90;;;;;;4985332;28;20878;-74
2023/09/01 11:02:18;;;;;;;3.30;2.47;;;22.80;99.90;;;;;;4983027;28;20495;-74
2023/09/01 11:04:44;;;;;;;4.20;1.97;;;22.90;99.90;;;;;;4992744;28;20435;-74
2023/09/01 11:07:10;;;;;;;3.77;1.83;;;22.90;99.90;;;;;;4980560;28;20460;-74
2023/09/01 11:09:36;;;;;;;3.30;2.50;;;22.90;99.90;;;;;;5004911;28;20190;-73
2023/09/01 11:12:06;;;;;;;5.20;2.20;;;22.90;99.90;;;;;;4978226;28;20451;-73
2023/09/01 11:14:33;;;;;;;4.47;2.13;;;22.90;99.90;;;;;;4987312;28;20264;-73
2023/09/01 11:17:00;;;;;;;4.60;2.10;;;22.80;99.90;;;;;;4983061;28;20419;-73
2023/09/01 11:19:26;;;;;;;3.33;2.63;;;22.80;99.90;;;;;;4989457;28;20730;-73
2023/09/01 11:21:52;;;;;;;4.20;1.80;;;22.90;99.90;;;;;;4981682;28;20448;-73
2023/09/01 11:24:21;;;;;;;2.70;1.93;;;22.90;99.90;;;;;;4985013;28;20197;-73
2023/09/01 11:26:52;;;;;;;3.50;2.10;;;23.00;99.90;;;;;;4986499;28;20186;-74
2023/09/01 11:29:21;;;;;;;2.80;1.93;;;23.00;99.90;;;;;;4989351;28;20477;-73
2023/09/01 11:31:47;;;;;;;3.20;2.20;;;23.10;99.90;;;;;;4977064;28;20511;-73
2023/09/01 11:34:14;;;;;;;3.00;1.80;;;23.20;99.90;;;;;;4979816;28;20429;-73
2023/09/01 11:36:50;;;;;;;3.30;2.20;;;23.20;99.90;;;;;;4977383;28;20445;-73
2023/09/01 11:39:16;;;;;;;3.40;2.10;;;23.30;99.90;;;;;;4982669;28;20506;-73
2023/09/01 11:41:43;;;;;;;3.00;2.07;;;23.40;99.90;;;;;;4982632;28;20716;-73
2023/09/01 11:44:09;;;;;;;5.50;2.23;;;23.40;99.90;;;;;;4984710;28;20431;-73
2023/09/01 11:46:37;;;;;;;3.07;2.13;;;23.40;99.90;;;;;;4978580;28;20414;-74
2023/09/01 11:49:04;;;;;;;6.00;2.30;;;23.60;99.90;;;;;;4983405;28;20228;-73
2023/09/01 11:51:36;;;;;;;3.27;2.47;;;23.70;99.90;;;;;;4977596;28;20433;-73
2023/09/01 11:54:02;;;;;;;4.47;2.20;;;23.80;99.90;;;;;;4981815;28;20452;-73
2023/09/01 11:56:27;;;;;;;4.13;1.73;;;23.80;99.90;;;;;;4980969;28;20413;-73
2023/09/01 11:58:55;;;;;;;3.00;1.70;;;23.90;99.90;;;;;;4984205;28;20444;-73
2023/09/01 12:01:23;;;;;;;3.63;2.00;;;24.10;99.90;;;;;;4980282;28;20219;-73
2023/09/01 12:03:50;;;;;;;4.40;2.40;;;24.20;99.90;;;;;;4984102;28;20423;-73
2023/09/01 12:06:27;;;;;;;2.80;1.90;;;24.20;99.90;;;;;;4985362;28;20527;-73
2023/09/01 12:09:08;;;;;;;2.60;2.10;;;24.10;99.90;;;;;;4984861;28;21079;-73
2023/09/01 12:11:33;;;;;;;2.93;1.70;;;24.00;99.90;;;;;;4987438;28;20451;-73
2023/09/01 12:14:23;;;;;;;2.33;1.83;;;23.90;99.90;;;;;;4983684;28;20455;-73
2023/09/01 12:16:53;;;;;;;5.50;2.00;;;23.70;99.90;;;;;;4984742;28;20178;-74
2023/09/01 12:19:22;;;;;;;4.10;2.10;;;23.60;99.90;;;;;;4981228;28;20444;-73
2023/09/01 12:21:47;;;;;;;2.90;2.20;;;23.60;99.90;;;;;;4981456;28;20780;-73
2023/09/01 12:24:13;;;;;;;3.10;2.00;;;23.60;99.90;;;;;;4981692;28;20506;-74
2023/09/01 12:26:38;;;;;;;4.03;2.10;;;23.60;99.90;;;;;;4982575;28;20176;-73
2023/09/01 12:29:04;;;;;;;3.30;2.10;;;23.60;99.90;;;;;;4982445;28;20249;-73
2023/09/01 12:31:30;;;;;;;3.70;2.37;;;23.60;99.90;;;;;;4981030;28;20245;-73
2023/09/01 12:33:55;;;;;;;6.53;2.33;;;23.50;99.90;;;;;;4984491;28;20181;-74
2023/09/01 12:36:21;;;;;;;8.40;2.13;;;23.60;99.90;;;;;;4984032;28;20197;-73
2023/09/01 12:38:46;;;;;;;3.10;2.40;;;23.60;99.90;;;;;;4976429;28;20206;-73
2023/09/01 12:41:12;;;;;;;3.70;2.17;;;23.70;99.90;;;;;;4982616;28;20278;-73
2023/09/01 12:43:37;;;;;;;3.10;2.13;;;23.80;99.90;;;;;;4988386;28;20185;-73
2023/09/01 12:46:03;;;;;;;3.50;2.30;;;23.90;99.90;;;;;;4984859;28;20193;-73
2023/09/01 12:48:29;;;;;;;5.07;1.87;;;24.00;99.90;;;;;;4984321;28;20206;-73